createdAt,value
2023-01-07T00:00:13.100Z,64.08
2023-01-07T00:02:15.070Z,63.80
2023-01-07T00:04:17.387Z,64.43
2023-01-07T00:06:28.166Z,64.38
2023-01-07T00:08:35.658Z,64.35
2023-01-07T00:10:37.632Z,63.89
2023-01-07T00:12:39.762Z,64.00
2023-01-07T00:14:41.929Z,63.73
2023-01-07T00:16:44.155Z,63.88
2023-01-07T00:18:46.765Z,64.17
2023-01-07T00:20:51.269Z,63.64
2023-01-07T00:22:53.650Z,63.84
2023-01-07T00:24:55.959Z,63.69
2023-01-07T00:26:58.176Z,63.52
2023-01-07T00:29:00.691Z,63.26
2023-01-07T00:31:07.902Z,63.19
2023-01-07T00:33:14.122Z,63.39
2023-01-07T00:35:23.650Z,63.26
2023-01-07T00:37:44.584Z,63.68
2023-01-07T00:39:46.790Z,63.37
2023-01-07T00:42:07.763Z,63.52
2023-01-07T00:44:10.448Z,63.22
2023-01-07T00:46:15.523Z,63.57
2023-01-07T00:48:18.870Z,63.15
2023-01-07T00:50:23.240Z,63.19
2023-01-07T00:52:25.539Z,63.56
2023-01-07T00:54:27.582Z,63.33
2023-01-07T00:56:29.721Z,63.58
2023-01-07T00:58:32.322Z,63.77
2023-01-07T01:00:34.728Z,63.67
2023-01-07T01:02:36.859Z,63.41
2023-01-07T01:04:38.928Z,63.52
2023-01-07T01:06:41.109Z,63.93
2023-01-07T01:08:44.974Z,63.33
2023-01-07T01:10:47.268Z,63.79
2023-01-07T01:12:49.955Z,63.67
2023-01-07T01:14:52.124Z,63.81
2023-01-07T01:16:54.453Z,63.49
2023-01-07T01:18:56.793Z,63.46
2023-01-07T01:21:05.356Z,63.08
2023-01-07T01:23:07.982Z,62.92
2023-01-07T01:25:11.009Z,63.41
2023-01-07T01:27:12.992Z,63.66
2023-01-07T01:29:17.920Z,63.51
2023-01-07T01:31:19.916Z,63.69
2023-01-07T01:33:25.261Z,63.99
2023-01-07T01:35:27.552Z,64.11
2023-01-07T01:37:30.518Z,64.29
2023-01-07T01:39:33.436Z,64.09
2023-01-07T01:41:36.443Z,63.79
2023-01-07T01:43:41.317Z,63.80
2023-01-07T01:45:45.222Z,63.78
2023-01-07T01:47:49.864Z,63.98
2023-01-07T01:49:55.889Z,64.15
2023-01-07T01:52:10.349Z,64.02
2023-01-07T01:54:16.399Z,63.81
2023-01-07T01:56:28.188Z,63.63
2023-01-07T01:58:37.087Z,63.72
2023-01-07T02:00:40.473Z,63.91
2023-01-07T02:02:53.215Z,64.20
2023-01-07T02:04:57.195Z,63.91
2023-01-07T02:07:42.844Z,64.26
2023-01-07T02:09:50.909Z,64.49
2023-01-07T02:12:17.497Z,64.71
2023-01-07T02:14:40.317Z,64.81
2023-01-07T02:16:58.290Z,64.07
2023-01-07T02:19:14.982Z,64.40
2023-01-07T02:26:12.949Z,65.38
2023-01-07T02:28:36.748Z,64.76
2023-01-07T02:30:47.791Z,65.05
2023-01-07T02:32:58.487Z,64.91
2023-01-07T02:35:00.298Z,64.92
2023-01-07T02:37:10.592Z,64.91
2023-01-07T02:39:34.541Z,65.36
2023-01-07T02:42:14.181Z,65.47
2023-01-07T02:44:39.521Z,65.77
2023-01-07T02:46:44.914Z,65.08
2023-01-07T02:48:47.566Z,65.07
2023-01-07T02:50:49.906Z,64.95
2023-01-07T02:52:52.155Z,65.34
2023-01-07T02:55:03.142Z,65.44
2023-01-07T03:01:20.554Z,65.51
2023-01-07T03:03:47.659Z,65.34
2023-01-07T03:06:08.394Z,65.69
2023-01-07T03:08:26.087Z,65.28
2023-01-07T03:11:07.328Z,65.08
2023-01-07T03:13:50.691Z,65.12
2023-01-07T03:16:10.328Z,65.10
2023-01-07T03:18:17.507Z,65.36
2023-01-07T03:20:22.729Z,65.36
2023-01-07T03:22:28.315Z,65.53
2023-01-07T03:24:32.641Z,65.31
2023-01-07T03:26:58.970Z,66.15
2023-01-07T03:29:03.286Z,65.11
2023-01-07T03:31:12.482Z,65.42
2023-01-07T03:33:27.888Z,65.37
2023-01-07T03:35:32.478Z,64.99
2023-01-07T03:37:35.296Z,64.61
2023-01-07T03:39:40.174Z,64.56
2023-01-07T03:42:01.432Z,64.42
2023-01-07T03:44:03.739Z,64.58
2023-01-07T03:46:06.367Z,64.33
2023-01-07T03:48:08.594Z,64.26
2023-01-07T03:50:13.444Z,64.06
2023-01-07T03:52:18.160Z,64.00
2023-01-07T03:54:21.490Z,63.86
2023-01-07T03:56:23.597Z,64.20
2023-01-07T03:58:26.221Z,64.43
2023-01-07T04:00:28.387Z,64.60
2023-01-07T04:02:42.764Z,64.40
2023-01-07T04:04:53.522Z,64.03
2023-01-07T04:06:56.665Z,63.89
2023-01-07T04:08:59.348Z,63.57
2023-01-07T04:11:02.148Z,64.10
2023-01-07T04:13:04.674Z,63.94
2023-01-07T04:15:07.697Z,63.24
2023-01-07T04:17:09.940Z,63.17
2023-01-07T04:19:12.551Z,63.30
2023-01-07T04:21:14.925Z,62.99
2023-01-07T04:23:17.437Z,63.25
2023-01-07T04:25:21.791Z,62.89
2023-01-07T04:27:25.456Z,63.03
2023-01-07T04:29:28.370Z,63.17
2023-01-07T04:31:30.630Z,63.31
2023-01-07T04:33:33.055Z,62.95
2023-01-07T04:35:39.026Z,63.12
2023-01-07T04:37:43.625Z,63.38
2023-01-07T04:39:46.122Z,62.91
2023-01-07T04:41:48.323Z,62.88
2023-01-07T04:43:51.172Z,63.34
2023-01-07T04:45:53.362Z,63.15
2023-01-07T04:47:56.745Z,63.03
2023-01-07T04:49:59.163Z,62.79
2023-01-07T04:52:05.730Z,62.53
2023-01-07T04:54:08.968Z,62.56
2023-01-07T04:56:11.746Z,62.47
2023-01-07T04:58:14.550Z,62.51
2023-01-07T05:00:16.873Z,62.56
2023-01-07T05:02:21.824Z,62.55
2023-01-07T05:04:28.371Z,62.30
2023-01-07T05:06:30.802Z,62.19
2023-01-07T05:08:33.620Z,62.27
2023-01-07T05:10:36.142Z,62.31
2023-01-07T05:12:39.747Z,61.92
2023-01-07T05:14:44.431Z,62.39
2023-01-07T05:16:47.227Z,62.21
2023-01-07T05:18:49.251Z,62.25
2023-01-07T05:20:51.578Z,61.84
2023-01-07T05:22:54.352Z,61.62
2023-01-07T05:24:56.913Z,61.65
2023-01-07T05:27:03.398Z,62.08
2023-01-07T05:29:06.125Z,61.82
2023-01-07T05:31:08.884Z,61.37
2023-01-07T05:33:10.932Z,61.93
2023-01-07T05:35:13.003Z,62.23
2023-01-07T05:37:15.798Z,62.02
2023-01-07T05:39:19.189Z,61.81
2023-01-07T05:41:21.402Z,61.55
2023-01-07T05:43:23.782Z,61.50
2023-01-07T05:45:26.351Z,61.69
2023-01-07T05:47:29.818Z,61.55
2023-01-07T05:49:31.851Z,61.56
2023-01-07T05:51:33.867Z,61.78
2023-01-07T05:53:43.632Z,61.61
2023-01-07T05:55:46.458Z,61.95
2023-01-07T05:57:48.573Z,62.28
2023-01-07T05:59:53.428Z,62.35
2023-01-07T06:01:55.626Z,62.16
2023-01-07T06:03:57.754Z,62.30
2023-01-07T06:06:07.386Z,62.51
2023-01-07T06:08:12.267Z,62.90
2023-01-07T06:10:14.994Z,62.56
2023-01-07T06:12:17.113Z,62.36
2023-01-07T06:14:19.216Z,62.51
2023-01-07T06:16:21.512Z,63.31
2023-01-07T06:18:23.717Z,63.27
2023-01-07T06:20:36.658Z,63.13
2023-01-07T06:22:39.261Z,62.53
2023-01-07T06:24:41.513Z,62.65
2023-01-07T06:26:43.766Z,62.60
2023-01-07T06:28:46.246Z,62.55
2023-01-07T06:30:48.728Z,63.11
2023-01-07T06:33:16.941Z,63.36
2023-01-07T06:35:19.207Z,62.87
2023-01-07T06:37:21.945Z,63.31
2023-01-07T06:39:24.581Z,63.62
2023-01-07T06:49:26.800Z,63.95
2023-01-07T06:51:28.982Z,64.40
2023-01-07T06:53:56.742Z,64.97
2023-01-07T06:55:59.036Z,64.37
2023-01-07T06:58:01.161Z,64.80
2023-01-07T07:00:04.208Z,64.47
2023-01-07T07:02:07.130Z,64.33
2023-01-07T07:04:09.161Z,64.60
2023-01-07T07:06:11.437Z,64.59
2023-01-07T07:08:13.639Z,64.38
2023-01-07T07:10:15.538Z,64.43
2023-01-07T07:12:18.694Z,64.59
2023-01-07T07:14:20.895Z,64.50
2023-01-07T07:16:24.340Z,64.61
2023-01-07T07:18:27.147Z,64.18
2023-01-07T07:20:29.506Z,64.02
2023-01-07T07:22:34.016Z,64.15
2023-01-07T07:24:37.228Z,64.14
2023-01-07T07:26:39.302Z,64.29
2023-01-07T07:28:43.124Z,64.41
2023-01-07T07:30:47.555Z,64.47
2023-01-07T07:32:50.366Z,64.37
2023-01-07T07:34:52.453Z,64.88
2023-01-07T07:36:54.588Z,64.78
2023-01-07T07:38:57.628Z,64.77
2023-01-07T07:41:00.858Z,64.70
2023-01-07T07:43:10.356Z,64.75
2023-01-07T07:45:16.394Z,64.45
2023-01-07T07:47:19.036Z,64.55
2023-01-07T07:49:20.919Z,64.82
2023-01-07T07:51:24.339Z,64.86
2023-01-07T07:53:27.061Z,65.39
2023-01-07T07:55:29.077Z,64.80
2023-01-07T07:57:31.203Z,64.25
2023-01-07T07:59:33.456Z,63.84
2023-01-07T08:01:37.374Z,63.97
2023-01-07T08:03:39.518Z,63.88
2023-01-07T08:05:46.051Z,64.12
2023-01-07T08:07:48.017Z,63.75
2023-01-07T08:09:50.076Z,63.83
2023-01-07T08:11:54.927Z,63.40
2023-01-07T08:13:57.331Z,63.63
2023-01-07T08:15:59.528Z,63.01
2023-01-07T08:18:06.239Z,62.94
2023-01-07T08:20:09.178Z,62.83
2023-01-07T08:22:11.062Z,62.81
2023-01-07T08:24:13.031Z,62.49
2023-01-07T08:26:15.033Z,62.94
2023-01-07T08:28:17.239Z,62.65
2023-01-07T08:30:20.536Z,62.54
2023-01-07T08:32:23.003Z,62.38
2023-01-07T08:34:25.151Z,62.39
2023-01-07T08:36:27.406Z,62.38
2023-01-07T08:38:31.776Z,61.99
2023-01-07T08:40:34.840Z,61.84
2023-01-07T08:42:37.427Z,61.97
2023-01-07T08:44:39.534Z,61.74
2023-01-07T08:46:43.005Z,61.60
2023-01-07T08:48:45.223Z,61.36
2023-01-07T08:50:52.699Z,61.24
2023-01-07T08:52:54.946Z,61.61
2023-01-07T08:54:57.429Z,61.51
2023-01-07T08:56:59.448Z,61.44
2023-01-07T08:59:01.518Z,61.44
2023-01-07T09:01:06.413Z,62.14
2023-01-07T09:03:09.053Z,61.99
2023-01-07T09:05:11.918Z,61.95
2023-01-07T09:07:14.109Z,62.05
2023-01-07T09:09:16.751Z,61.87
2023-01-07T09:11:18.839Z,61.79
2023-01-07T09:13:20.888Z,61.87
2023-01-07T09:15:22.910Z,61.72
2023-01-07T09:17:25.243Z,61.47
2023-01-07T09:19:27.990Z,61.15
2023-01-07T09:21:30.101Z,61.13
2023-01-07T09:23:35.253Z,60.76
2023-01-07T09:25:37.710Z,60.99
2023-01-07T09:27:40.644Z,61.04
2023-01-07T09:29:45.543Z,61.53
2023-01-07T09:31:48.232Z,61.56
2023-01-07T09:33:50.477Z,61.03
2023-01-07T09:36:55.259Z,60.24
2023-01-07T09:38:57.714Z,60.62
2023-01-07T09:40:59.864Z,60.21
2023-01-07T09:44:00.646Z,59.43
2023-01-07T09:45:57.805Z,60.04
2023-01-07T09:48:03.114Z,59.98
2023-01-07T09:50:19.095Z,59.33
2023-01-07T09:52:33.817Z,60.09
2023-01-07T09:54:37.797Z,60.12
2023-01-07T09:56:40.761Z,59.66
2023-01-07T09:58:46.310Z,60.15
2023-01-07T10:01:28.026Z,59.52
2023-01-07T10:04:06.704Z,59.63
2023-01-07T10:06:42.662Z,59.62
2023-01-07T10:09:01.508Z,58.97
2023-01-07T10:11:06.597Z,59.34
2023-01-07T10:13:34.601Z,57.58
2023-01-07T10:16:00.504Z,58.17
2023-01-07T10:18:14.307Z,58.58
2023-01-07T10:20:53.391Z,57.33
2023-01-07T10:23:04.429Z,57.65
2023-01-07T10:25:20.086Z,56.60
2023-01-07T10:27:30.569Z,56.89
2023-01-07T10:29:46.758Z,57.11
2023-01-07T10:32:19.649Z,55.99
2023-01-07T10:34:37.340Z,56.69
2023-01-07T10:36:51.014Z,56.99
2023-01-07T10:39:23.641Z,56.79
2023-01-07T10:42:01.068Z,56.67
2023-01-07T10:44:38.966Z,55.94
2023-01-07T10:47:09.231Z,56.25
2023-01-07T10:49:19.423Z,56.60
2023-01-07T10:51:46.064Z,56.28
2023-01-07T10:54:12.257Z,55.99
2023-01-07T10:56:37.422Z,55.80
2023-01-07T10:58:43.486Z,56.41
2023-01-07T11:00:49.319Z,56.24
2023-01-07T11:02:55.320Z,56.28
2023-01-07T11:04:58.786Z,56.13
2023-01-07T11:07:05.901Z,55.86
2023-01-07T11:09:14.243Z,55.56
2023-01-07T11:11:20.546Z,56.63
2023-01-07T11:13:27.671Z,55.63
2023-01-07T11:16:15.018Z,55.82
2023-01-07T11:18:36.649Z,56.05
2023-01-07T11:20:44.337Z,55.43
2023-01-07T11:22:46.298Z,56.05
2023-01-07T11:24:48.699Z,55.81
2023-01-07T11:26:50.954Z,56.06
2023-01-07T11:29:13.117Z,55.93
2023-01-07T11:31:15.185Z,56.17
2023-01-07T11:33:24.793Z,55.44
2023-01-07T11:35:54.637Z,55.76
2023-01-07T11:38:00.800Z,55.36
2023-01-07T11:40:25.886Z,55.42
2023-01-07T11:42:40.143Z,55.62
2023-01-07T11:44:42.297Z,55.49
2023-01-07T11:46:45.562Z,55.25
2023-01-07T11:49:01.521Z,54.86
2023-01-07T11:51:10.850Z,55.58
2023-01-07T11:53:14.248Z,55.53
2023-01-07T11:55:19.987Z,55.52
2023-01-07T11:57:25.532Z,54.92
2023-01-07T11:59:29.899Z,55.35
2023-01-07T12:01:53.701Z,55.32
2023-01-07T12:03:55.784Z,55.48
2023-01-07T12:06:06.099Z,55.42
2023-01-07T12:08:21.227Z,55.20
2023-01-07T12:10:29.951Z,54.89
2023-01-07T12:12:31.973Z,55.37
2023-01-07T12:14:37.490Z,55.82
2023-01-07T12:16:40.690Z,55.43
2023-01-07T12:19:02.728Z,54.80
2023-01-07T12:21:50.865Z,54.79
2023-01-07T12:24:48.107Z,55.12
2023-01-07T12:26:58.603Z,55.65
2023-01-07T12:29:25.106Z,55.08
2023-01-07T12:32:01.624Z,55.02
2023-01-07T12:34:39.541Z,55.07
2023-01-07T12:36:49.689Z,55.18
2023-01-07T12:38:58.790Z,55.11
2023-01-07T12:41:05.935Z,55.16
2023-01-07T12:43:13.826Z,55.36
2023-01-07T12:45:22.040Z,55.37
2023-01-07T12:47:32.926Z,55.61
2023-01-07T12:50:04.939Z,55.11
2023-01-07T12:52:20.207Z,54.78
2023-01-07T12:54:38.710Z,54.77
2023-01-07T12:56:59.945Z,55.22
2023-01-07T12:59:46.818Z,54.73
2023-01-07T13:01:57.723Z,55.50
2023-01-07T13:04:13.557Z,55.42
2023-01-07T13:06:26.997Z,55.78
2023-01-07T13:08:58.969Z,55.40
2023-01-07T13:11:10.599Z,55.25
2023-01-07T13:13:35.459Z,55.25
2023-01-07T13:15:41.131Z,55.09
2023-01-07T13:17:43.880Z,55.48
2023-01-07T13:19:46.098Z,55.19
2023-01-07T13:21:49.979Z,55.55
2023-01-07T13:24:10.217Z,54.91
2023-01-07T13:26:25.623Z,55.38
2023-01-07T13:28:43.458Z,55.03
2023-01-07T13:31:16.467Z,54.50
2023-01-07T13:33:25.491Z,55.17
2023-01-07T13:35:49.571Z,54.85
2023-01-07T13:38:13.372Z,55.31
2023-01-07T13:40:46.609Z,55.57
2023-01-07T13:42:55.171Z,55.48
2023-01-07T13:45:18.208Z,55.63
2023-01-07T13:47:23.703Z,55.65
2023-01-07T13:49:25.990Z,55.57
2023-01-07T13:51:35.545Z,55.71
2023-01-07T13:53:40.213Z,55.47
2023-01-07T13:55:47.828Z,54.99
2023-01-07T13:57:51.035Z,55.36
2023-01-07T13:59:58.176Z,55.40
2023-01-07T14:02:19.322Z,55.27
2023-01-07T14:05:07.874Z,55.22
2023-01-07T14:07:10.419Z,56.05
2023-01-07T14:09:18.892Z,55.99
2023-01-07T14:11:42.160Z,56.25
2023-01-07T14:14:05.537Z,56.18
2023-01-07T14:16:20.768Z,55.96
2023-01-07T14:18:43.725Z,56.33
2023-01-07T14:20:53.234Z,55.93
2023-01-07T14:23:12.365Z,55.90
2023-01-07T14:25:40.984Z,56.20
2023-01-07T14:27:45.828Z,56.54
2023-01-07T14:29:52.559Z,56.42
2023-01-07T14:32:24.020Z,56.69
2023-01-07T14:34:26.994Z,56.76
2023-01-07T14:37:06.531Z,56.66
2023-01-07T14:39:43.261Z,56.49
2023-01-07T14:42:19.686Z,56.66
2023-01-07T14:44:28.403Z,56.72
2023-01-07T14:46:46.906Z,57.16
2023-01-07T14:49:03.934Z,57.15
2023-01-07T14:51:44.698Z,57.42
2023-01-07T14:53:57.343Z,57.37
2023-01-07T14:56:17.354Z,57.05
2023-01-07T14:58:40.738Z,57.12
2023-01-07T15:00:45.820Z,57.20
2023-01-07T15:03:12.851Z,56.89
2023-01-07T15:05:17.428Z,57.28
2023-01-07T15:07:24.983Z,57.03
2023-01-07T15:10:11.874Z,57.40
2023-01-07T15:12:40.036Z,57.41
2023-01-07T15:15:08.808Z,57.92
2023-01-07T15:17:14.335Z,57.94
2023-01-07T15:19:16.492Z,57.92
2023-01-07T15:21:24.297Z,58.06
2023-01-07T15:23:33.600Z,58.26
2023-01-07T15:26:09.078Z,58.75
2023-01-07T15:28:43.836Z,58.46
2023-01-07T15:31:06.876Z,58.36
2023-01-07T15:33:24.073Z,58.50
2023-01-07T15:35:37.873Z,58.66
2023-01-07T15:37:45.506Z,58.90
2023-01-07T15:39:58.032Z,58.93
2023-01-07T15:42:01.407Z,58.92
2023-01-07T15:44:28.367Z,59.37
2023-01-07T15:46:32.608Z,58.83
2023-01-07T15:48:34.730Z,59.09
2023-01-07T15:50:37.796Z,59.07
2023-01-07T15:52:39.831Z,59.06
2023-01-07T15:54:41.947Z,59.11
2023-01-07T15:56:44.006Z,59.03
2023-01-07T15:58:51.722Z,59.10
2023-01-07T16:00:57.515Z,58.71
2023-01-07T16:03:00.064Z,59.00
2023-01-07T16:05:04.627Z,58.62
2023-01-07T16:07:06.751Z,58.78
2023-01-07T16:09:21.375Z,58.82
2023-01-07T16:11:30.426Z,58.79
2023-01-07T16:13:33.026Z,58.81
2023-01-07T16:15:37.851Z,58.65
2023-01-07T16:17:53.190Z,58.58
2023-01-07T16:20:24.503Z,59.28
2023-01-07T16:22:27.951Z,59.26
2023-01-07T16:24:30.119Z,59.16
2023-01-07T16:26:52.541Z,59.22
2023-01-07T16:29:07.328Z,59.47
2023-01-07T16:31:15.301Z,59.17
2023-01-07T16:33:24.504Z,59.00
2023-01-07T16:35:38.162Z,58.92
2023-01-07T16:37:41.104Z,58.89
2023-01-07T16:39:47.465Z,58.61
2023-01-07T16:41:49.850Z,58.62
2023-01-07T16:43:59.483Z,58.67
2023-01-07T16:46:24.531Z,58.94
2023-01-07T16:48:26.696Z,58.80
2023-01-07T16:50:43.624Z,58.59
2023-01-07T16:52:54.252Z,59.00
2023-01-07T16:54:56.325Z,58.81
2023-01-07T16:57:04.722Z,58.34
2023-01-07T16:59:15.772Z,58.62
2023-01-07T17:01:21.532Z,58.37
2023-01-07T17:03:25.464Z,58.82
2023-01-07T17:05:32.437Z,58.62
2023-01-07T17:07:36.434Z,58.47
2023-01-07T17:09:39.203Z,58.67
2023-01-07T17:11:41.817Z,58.88
2023-01-07T17:13:44.376Z,58.42
2023-01-07T17:15:46.153Z,58.79
2023-01-07T17:17:48.278Z,58.88
2023-01-07T17:19:58.815Z,58.16
2023-01-07T17:22:00.951Z,58.54
2023-01-07T17:24:02.973Z,58.47
2023-01-07T17:26:19.493Z,59.18
2023-01-07T17:28:25.246Z,58.97
2023-01-07T17:30:33.591Z,59.25
2023-01-07T17:32:37.136Z,59.11
2023-01-07T17:34:39.118Z,59.21
2023-01-07T17:36:41.679Z,59.63
2023-01-07T17:38:44.039Z,59.32
2023-01-07T17:40:46.934Z,59.28
2023-01-07T17:43:08.476Z,59.55
2023-01-07T17:45:15.733Z,59.67
2023-01-07T17:47:22.266Z,59.87
2023-01-07T17:49:24.378Z,59.90
2023-01-07T17:51:27.462Z,59.63
2023-01-07T17:53:33.009Z,59.57
2023-01-07T17:55:36.372Z,59.49
2023-01-07T17:57:38.128Z,59.72
2023-01-07T17:59:47.167Z,59.70
2023-01-07T18:01:51.566Z,59.67
2023-01-07T18:03:55.320Z,59.75
2023-01-07T18:05:57.405Z,59.77
2023-01-07T18:07:59.372Z,59.84
2023-01-07T18:10:01.413Z,59.97
2023-01-07T18:12:22.325Z,59.58
2023-01-07T18:14:24.930Z,59.68
2023-01-07T18:16:27.516Z,59.48
2023-01-07T18:18:29.472Z,59.66
2023-01-07T18:20:31.586Z,59.63
2023-01-07T18:22:35.378Z,59.43
2023-01-07T18:24:37.673Z,59.96
2023-01-07T18:26:39.777Z,59.73
2023-01-07T18:28:42.480Z,59.84
2023-01-07T18:30:44.518Z,59.94
2023-01-07T18:32:46.638Z,60.09
2023-01-07T18:34:48.696Z,60.42
2023-01-07T18:36:51.043Z,60.12
2023-01-07T18:38:53.347Z,60.08
2023-01-07T18:40:56.385Z,60.33
2023-01-07T18:42:58.613Z,60.02
2023-01-07T18:45:01.132Z,59.92
2023-01-07T18:47:03.122Z,60.31
2023-01-07T18:49:04.995Z,60.10
2023-01-07T18:51:11.396Z,60.28
2023-01-07T18:53:13.974Z,60.24
2023-01-07T18:55:17.957Z,60.25
2023-01-07T18:57:20.130Z,59.92
2023-01-07T18:59:22.258Z,60.31
2023-01-07T19:01:24.416Z,59.66
2023-01-07T19:03:26.639Z,59.71
2023-01-07T19:05:29.143Z,60.10
2023-01-07T19:07:31.242Z,60.18
2023-01-07T19:09:33.382Z,60.40
2023-01-07T19:11:38.425Z,60.15
2023-01-07T19:13:40.438Z,60.06
2023-01-07T19:15:43.197Z,60.13
2023-01-07T19:17:45.392Z,59.97
2023-01-07T19:19:48.900Z,59.74
2023-01-07T19:21:51.119Z,60.03
2023-01-07T19:23:53.818Z,60.34
2023-01-07T19:26:05.046Z,60.59
2023-01-07T19:28:07.139Z,60.66
2023-01-07T19:30:09.782Z,60.83
2023-01-07T19:32:11.830Z,60.64
2023-01-07T19:34:14.992Z,61.12
2023-01-07T19:36:17.903Z,60.68
2023-01-07T19:38:20.085Z,60.95
2023-01-07T19:40:22.891Z,60.71
2023-01-07T19:42:25.172Z,61.19
2023-01-07T19:44:27.292Z,61.34
2023-01-07T19:46:29.442Z,61.44
2023-01-07T19:48:31.615Z,61.38
2023-01-07T19:50:33.670Z,61.52
2023-01-07T19:52:35.870Z,61.54
2023-01-07T19:54:38.074Z,61.88
2023-01-07T19:56:40.805Z,61.72
2023-01-07T19:58:43.164Z,62.15
2023-01-07T20:00:45.241Z,61.90
2023-01-07T20:02:47.377Z,61.76
2023-01-07T20:04:49.480Z,61.80
2023-01-07T20:06:51.495Z,61.70
2023-01-07T20:08:55.558Z,62.27
2023-01-07T20:10:59.128Z,62.14
2023-01-07T20:13:01.253Z,62.09
2023-01-07T20:15:03.643Z,62.48
2023-01-07T20:17:05.718Z,62.02
2023-01-07T20:19:10.417Z,62.25
2023-01-07T20:21:14.460Z,62.45
2023-01-07T20:23:16.476Z,61.92
2023-01-07T20:25:18.996Z,62.38
2023-01-07T20:27:20.930Z,62.42
2023-01-07T20:29:24.010Z,62.52
2023-01-07T20:31:27.926Z,62.05
2023-01-07T20:33:30.126Z,62.75
2023-01-07T20:35:32.247Z,62.78
2023-01-07T20:37:34.967Z,62.49
2023-01-07T20:39:37.112Z,62.69
2023-01-07T20:41:39.386Z,62.47
2023-01-07T20:43:41.724Z,62.50
2023-01-07T20:45:44.152Z,62.79
2023-01-07T20:47:46.204Z,62.31
2023-01-07T20:49:48.071Z,63.14
2023-01-07T20:51:50.383Z,62.41
2023-01-07T20:53:55.346Z,62.77
2023-01-07T20:55:59.503Z,62.37
2023-01-07T20:58:01.751Z,62.68
2023-01-07T21:00:04.586Z,62.48
2023-01-07T21:02:06.955Z,62.32
2023-01-07T21:04:08.908Z,62.22
2023-01-07T21:06:13.734Z,62.48
2023-01-07T21:08:15.614Z,62.03
2023-01-07T21:10:19.270Z,61.98
2023-01-07T21:12:21.374Z,61.72
2023-01-07T21:14:23.651Z,62.23
2023-01-07T21:16:27.564Z,62.05
2023-01-07T21:18:29.585Z,62.16
2023-01-07T21:20:31.859Z,61.77
2023-01-07T21:22:38.010Z,61.94
2023-01-07T21:24:39.933Z,62.00
2023-01-07T21:26:44.094Z,62.45
2023-01-07T21:28:46.303Z,62.62
2023-01-07T21:30:48.462Z,62.67
2023-01-07T21:32:53.339Z,62.55
2023-01-07T21:34:55.252Z,62.26
2023-01-07T21:36:57.261Z,62.45
2023-01-07T21:38:59.394Z,62.42
2023-01-07T21:41:05.865Z,62.33
2023-01-07T21:43:07.887Z,62.32
2023-01-07T21:45:10.360Z,62.71
2023-01-07T21:47:12.257Z,62.58
2023-01-07T21:49:14.622Z,62.58
2023-01-07T21:51:22.930Z,62.47
2023-01-07T21:53:24.930Z,62.18
2023-01-07T21:55:26.886Z,62.29
2023-01-07T21:57:29.026Z,62.25
2023-01-07T21:59:31.042Z,62.39
2023-01-07T22:01:33.008Z,62.12
2023-01-07T22:03:36.472Z,62.15
2023-01-07T22:05:38.616Z,62.07
2023-01-07T22:07:40.647Z,62.56
2023-01-07T22:09:43.390Z,62.33
2023-01-07T22:11:45.384Z,62.77
2023-01-07T22:13:51.128Z,62.48
2023-01-07T22:15:53.240Z,62.53
2023-01-07T22:17:55.231Z,62.34
2023-01-07T22:19:57.292Z,61.86
2023-01-07T22:21:59.359Z,62.39
2023-01-07T22:24:01.337Z,62.68
2023-01-07T22:26:05.003Z,62.38
2023-01-07T22:28:07.137Z,62.64
2023-01-07T22:30:10.659Z,62.60
2023-01-07T22:32:12.718Z,62.39
2023-01-07T22:34:15.036Z,62.45
2023-01-07T22:36:31.650Z,62.11
2023-01-07T22:38:33.720Z,62.33
2023-01-07T22:40:37.108Z,62.22
2023-01-07T22:42:46.623Z,62.28
2023-01-07T22:44:58.818Z,62.33
2023-01-07T22:47:01.838Z,62.32
2023-01-07T22:49:04.173Z,62.16
2023-01-07T22:51:12.652Z,62.09
2023-01-07T22:53:15.878Z,62.26
2023-01-07T22:55:18.675Z,62.18
2023-01-07T22:57:21.161Z,62.53
2023-01-07T22:59:23.102Z,62.20
2023-01-07T23:01:25.379Z,62.20
2023-01-07T23:03:27.521Z,62.80
2023-01-07T23:05:29.704Z,62.38
2023-01-07T23:07:31.780Z,61.89
2023-01-07T23:09:34.376Z,61.97
2023-01-07T23:11:48.609Z,62.34
2023-01-07T23:13:50.731Z,62.35
2023-01-07T23:15:53.189Z,62.48
2023-01-07T23:17:55.822Z,62.36
2023-01-07T23:19:57.783Z,62.09
2023-01-07T23:21:59.682Z,62.28
2023-01-07T23:24:01.551Z,62.35
2023-01-07T23:26:03.425Z,62.30
2023-01-07T23:28:05.474Z,62.31
2023-01-07T23:30:08.423Z,62.16
2023-01-07T23:32:12.768Z,62.09
2023-01-07T23:34:16.263Z,62.38
2023-01-07T23:36:18.553Z,62.81
2023-01-07T23:38:20.504Z,62.94
2023-01-07T23:40:22.545Z,62.88
2023-01-07T23:42:24.672Z,62.53
2023-01-07T23:44:26.705Z,62.40
2023-01-07T23:46:28.676Z,62.51
2023-01-07T23:48:32.583Z,62.14
2023-01-07T23:50:34.806Z,62.50
2023-01-07T23:52:36.658Z,62.54
2023-01-07T23:54:38.705Z,62.73
2023-01-07T23:56:40.851Z,62.92
2023-01-07T23:58:45.275Z,62.58
